Strona główna
METAR-TAF:

METAR-TAF

Lotnisko :

Szczecin, Polska

Port lotniczy Szczecin-Goleniów

Szerokość geograficzna: 53-35N, Długość geograficzna: 014-54E, wysokość: 1 m

Aktualna obserwacja pogody

Raport powstał 24 minut temu, godzina 09:00 UTC
Wiatr 3 kt od południe, zmienny między południowo-południowy wschód i południowy zachód
Temperatura -5°C
Wilgotność 79%
Ciśnienie 1032 hPa
Widzialność 10 km lub więcej
Mało chmury na wysokości 700 ft
Przerywane chmury na wysokości 2600 ft

METAR: EPSC 250900Z 19003KT 150V230 9999 FEW007 BKN026 M05/M08 Q1032 R13/450195

czas: 10:24 (09:24 UTC)

Prognoza

Raport powstał 3 godziny i 54 minut temu, godzina 05:30 UTC
Prognoza ważna od 25 godzina 06 UTC do 26 godzina 06 UTC
Wiatr 2 kt z kierunków zmiennych
Widzialność 10 km lub więcej
Przerywane chmury na wysokości 2000 ft
Stopniowe zmiany
od 25 godzina 09 UTC do 25 godzina 12 UTC
Wiatr 10 kt od północny wschód

TAF: EPSC 250530Z 2506/2606 VRB02KT 9999 BKN020 BECMG 2509/2512 04010KT

Obserwacja i prognoza pogody dla ponad 4000 lotnisk (raport METAR i TAF).

Dostępne stacje oznaczono żółtymi i czerwonymi punktami na mapie.

Najedź kursorem aby zobaczyć nazwę stacji.

Kliknij aby zobaczyć obserwacje i prognozy pogody.

Aby zmienić mapę: kliknij na zielony przycisk z czarnym krzyżykiem, aby powiększyć; na zielony przycisk z myślnikiem, aby pomniejszyć; na zielone strzałki, aby przejść do map sąsiednich.


METAR-TAF: